createdAt,value
2018-01-15T00:00:25.185Z,-0.91
2018-01-15T00:01:25.177Z,-0.97
2018-01-15T00:02:25.169Z,-1.02
2018-01-15T00:03:25.161Z,-1.01
2018-01-15T00:04:25.147Z,-0.96
2018-01-15T00:05:25.138Z,-0.94
2018-01-15T00:06:25.128Z,-0.96
2018-01-15T00:07:25.117Z,-0.93
2018-01-15T00:08:25.109Z,-1.05
2018-01-15T00:09:25.099Z,-1.02
2018-01-15T00:10:25.090Z,-1.05
2018-01-15T00:11:25.081Z,-1.09
2018-01-15T00:12:25.069Z,-1.17
2018-01-15T00:13:25.060Z,-1.22
2018-01-15T00:14:25.052Z,-1.20
2018-01-15T00:15:25.040Z,-1.20
2018-01-15T00:16:25.031Z,-1.17
2018-01-15T00:17:25.022Z,-1.23
2018-01-15T00:18:25.013Z,-1.22
2018-01-15T00:19:25.005Z,-1.23
2018-01-15T00:20:24.991Z,-1.08
2018-01-15T00:21:24.983Z,-1.19
2018-01-15T00:22:24.972Z,-1.09
2018-01-15T00:23:24.962Z,-1.22
2018-01-15T00:24:24.953Z,-1.17
2018-01-15T00:25:24.950Z,-1.20
2018-01-15T00:26:24.939Z,-1.12
2018-01-15T00:27:24.923Z,-1.20
2018-01-15T00:28:24.915Z,-1.15
2018-01-15T00:29:24.906Z,-1.15
2018-01-15T00:30:24.896Z,-1.15
2018-01-15T00:31:24.887Z,-1.23
2018-01-15T00:32:24.876Z,-1.19
2018-01-15T00:33:24.866Z,-1.11
2018-01-15T00:34:24.860Z,-1.19
2018-01-15T00:35:24.847Z,-1.17
2018-01-15T00:36:24.837Z,-1.19
2018-01-15T00:37:24.826Z,-1.19
2018-01-15T00:38:24.817Z,-1.25
2018-01-15T00:39:24.807Z,-1.25
2018-01-15T00:40:24.797Z,-1.22
2018-01-15T00:41:24.787Z,-1.23
2018-01-15T00:42:24.780Z,-1.23
2018-01-15T00:43:24.768Z,-1.19
2018-01-15T00:44:24.758Z,-1.22
2018-01-15T00:45:24.751Z,-1.23
2018-01-15T00:46:24.741Z,-1.19
2018-01-15T00:47:24.728Z,-1.12
2018-01-15T00:48:24.718Z,-1.19
2018-01-15T00:49:24.709Z,-1.14
2018-01-15T00:50:24.700Z,-1.19
2018-01-15T00:51:24.690Z,-1.19
2018-01-15T00:52:24.681Z,-1.19
2018-01-15T00:53:24.669Z,-1.19
2018-01-15T00:54:24.662Z,-1.19
2018-01-15T00:55:24.649Z,-1.22
2018-01-15T00:56:24.641Z,-1.23
2018-01-15T00:57:24.630Z,-1.23
2018-01-15T00:58:24.624Z,-1.12
2018-01-15T00:59:24.612Z,-1.15
2018-01-15T01:00:24.600Z,-1.09
2018-01-15T01:01:24.591Z,-1.11
2018-01-15T01:02:24.582Z,-1.08
2018-01-15T01:03:24.570Z,-1.11
2018-01-15T01:04:24.562Z,-1.08
2018-01-15T01:05:24.551Z,-1.11
2018-01-15T01:06:24.543Z,-0.97
2018-01-15T01:07:24.532Z,-0.93
2018-01-15T01:08:24.521Z,-0.97
2018-01-15T01:09:24.529Z,-1.08
2018-01-15T01:10:24.504Z,-0.94
2018-01-15T01:11:24.492Z,-1.07
2018-01-15T01:12:24.484Z,-0.94
2018-01-15T01:13:24.474Z,-0.94
2018-01-15T01:14:24.464Z,-0.89
2018-01-15T01:15:24.454Z,-0.93
2018-01-15T01:16:24.444Z,-0.77
2018-01-15T01:17:24.440Z,-0.74
2018-01-15T01:18:24.425Z,-0.67
2018-01-15T01:19:24.415Z,-0.64
2018-01-15T01:20:24.405Z,-0.61
2018-01-15T01:21:24.395Z,-0.49
2018-01-15T01:22:24.385Z,-0.52
2018-01-15T01:23:24.375Z,-0.53
2018-01-15T01:24:24.365Z,-0.50
2018-01-15T01:25:24.359Z,-0.47
2018-01-15T01:26:24.346Z,-0.43
2018-01-15T01:27:24.337Z,-0.34
2018-01-15T01:28:24.328Z,-0.32
2018-01-15T01:29:24.317Z,-0.25
2018-01-15T01:30:24.309Z,-0.26
2018-01-15T01:31:24.299Z,-0.11
2018-01-15T01:32:24.288Z,-0.15
2018-01-15T01:33:24.280Z,-0.14
2018-01-15T01:34:24.269Z,-0.20
2018-01-15T01:35:24.260Z,-0.10
2018-01-15T01:36:24.251Z,-0.10
2018-01-15T01:37:24.242Z,-0.03
2018-01-15T01:38:24.233Z,0.00
2018-01-15T01:39:24.221Z,-0.06
2018-01-15T01:40:24.212Z,-0.08
2018-01-15T01:41:24.204Z,-0.07
2018-01-15T01:42:24.194Z,-0.06
2018-01-15T01:43:24.183Z,0.03
2018-01-15T01:44:24.176Z,-0.03
2018-01-15T01:45:24.164Z,-0.07
2018-01-15T01:46:24.158Z,0.00
2018-01-15T01:47:24.147Z,0.03
2018-01-15T01:48:24.138Z,0.00
2018-01-15T01:49:24.129Z,0.05
2018-01-15T01:50:24.120Z,0.04
2018-01-15T01:51:24.109Z,0.16
2018-01-15T01:52:24.102Z,0.15
2018-01-15T01:53:24.090Z,0.22
2018-01-15T01:54:24.083Z,0.18
2018-01-15T01:55:24.073Z,0.22
2018-01-15T01:56:24.063Z,0.11
2018-01-15T01:57:24.055Z,0.15
2018-01-15T01:58:24.046Z,0.11
2018-01-15T01:59:24.034Z,0.04
2018-01-15T02:00:24.026Z,0.07
2018-01-15T02:01:24.017Z,-0.07
2018-01-15T02:02:24.009Z,0.00
2018-01-15T02:03:23.999Z,0.03
2018-01-15T02:04:23.990Z,-0.06
2018-01-15T02:05:23.981Z,-0.06
2018-01-15T02:06:23.972Z,-0.08
2018-01-15T02:07:23.961Z,-0.08
2018-01-15T02:08:23.953Z,-0.08
2018-01-15T02:09:23.943Z,-0.11
2018-01-15T02:10:23.935Z,-0.08
2018-01-15T02:11:23.926Z,-0.07
2018-01-15T02:12:23.914Z,-0.06
2018-01-15T02:13:23.907Z,-0.10
2018-01-15T02:14:23.896Z,-0.06
2018-01-15T02:15:23.887Z,-0.02
2018-01-15T02:16:23.879Z,-0.03
2018-01-15T02:17:23.869Z,-0.06
2018-01-15T02:18:23.861Z,-0.10
2018-01-15T02:19:23.849Z,-0.06
2018-01-15T02:20:23.840Z,-0.11
2018-01-15T02:21:23.832Z,-0.13
2018-01-15T02:22:23.822Z,-0.06
2018-01-15T02:23:23.814Z,-0.14
2018-01-15T02:24:23.803Z,-0.10
2018-01-15T02:25:23.795Z,-0.14
2018-01-15T02:26:23.786Z,-0.11
2018-01-15T02:27:23.778Z,-0.07
2018-01-15T02:28:23.769Z,-0.10
2018-01-15T02:29:23.758Z,-0.11
2018-01-15T02:30:23.750Z,-0.07
2018-01-15T02:31:23.742Z,-0.08
2018-01-15T02:32:23.729Z,-0.07
2018-01-15T02:33:23.720Z,-0.08
2018-01-15T02:34:23.711Z,-0.07
2018-01-15T02:35:23.702Z,-0.02
2018-01-15T02:36:23.692Z,-0.03
2018-01-15T02:37:23.688Z,0.05
2018-01-15T02:38:23.677Z,0.05
2018-01-15T02:39:23.663Z,-0.02
2018-01-15T02:40:23.657Z,0.04
2018-01-15T02:41:23.648Z,0.01
2018-01-15T02:42:23.641Z,0.10
2018-01-15T02:43:23.636Z,0.16
2018-01-15T02:44:23.620Z,0.16
2018-01-15T02:45:23.610Z,0.12
2018-01-15T02:46:23.601Z,0.15
2018-01-15T02:47:23.592Z,0.34
2018-01-15T02:48:23.583Z,0.37
2018-01-15T02:49:23.575Z,0.44
2018-01-15T02:50:23.566Z,0.41
2018-01-15T02:51:23.555Z,0.44
2018-01-15T02:52:23.547Z,0.36
2018-01-15T02:53:23.537Z,0.29
2018-01-15T02:54:23.529Z,0.37
2018-01-15T02:55:23.519Z,0.31
2018-01-15T02:56:23.511Z,0.39
2018-01-15T02:57:23.501Z,0.29
2018-01-15T02:58:23.493Z,0.39
2018-01-15T02:59:23.483Z,0.34
2018-01-15T03:00:23.474Z,0.34
2018-01-15T03:01:23.465Z,0.34
2018-01-15T03:02:23.457Z,0.47
2018-01-15T03:03:23.451Z,0.46
2018-01-15T03:04:23.439Z,0.40
2018-01-15T03:05:23.579Z,0.46
2018-01-15T03:06:23.419Z,0.65
2018-01-15T03:07:23.411Z,0.59
2018-01-15T03:08:23.402Z,0.65
2018-01-15T03:09:23.393Z,0.73
2018-01-15T03:10:23.383Z,0.74
2018-01-15T03:11:23.374Z,0.88
2018-01-15T03:12:23.365Z,0.94
2018-01-15T03:13:23.357Z,0.87
2018-01-15T03:14:23.349Z,0.84
2018-01-15T03:15:23.340Z,0.91
2018-01-15T03:16:23.331Z,0.98
2018-01-15T03:17:23.320Z,1.01
2018-01-15T03:18:23.312Z,0.98
2018-01-15T03:19:23.302Z,0.96
2018-01-15T03:20:23.294Z,1.02
2018-01-15T03:21:23.284Z,0.96
2018-01-15T03:22:23.276Z,0.91
2018-01-15T03:23:23.266Z,0.83
2018-01-15T03:24:23.258Z,0.76
2018-01-15T03:25:23.248Z,0.83
2018-01-15T03:26:23.242Z,0.68
2018-01-15T03:27:23.231Z,0.63
2018-01-15T03:28:23.221Z,0.52
2018-01-15T03:29:23.214Z,0.63
2018-01-15T03:30:23.205Z,0.56
2018-01-15T03:31:23.199Z,0.50
2018-01-15T03:32:23.190Z,0.49
2018-01-15T03:33:23.177Z,0.44
2018-01-15T03:34:23.168Z,0.37
2018-01-15T03:35:23.160Z,0.41
2018-01-15T03:36:23.150Z,0.31
2018-01-15T03:37:23.142Z,0.34
2018-01-15T03:38:23.133Z,0.28
2018-01-15T03:39:23.122Z,0.31
2018-01-15T03:40:23.114Z,0.36
2018-01-15T03:41:23.104Z,0.36
2018-01-15T03:42:23.097Z,0.40
2018-01-15T03:43:23.087Z,0.37
2018-01-15T03:44:23.078Z,0.44
2018-01-15T03:45:23.068Z,0.36
2018-01-15T03:46:23.060Z,0.34
2018-01-15T03:47:23.055Z,0.34
2018-01-15T03:48:23.042Z,0.26
2018-01-15T03:49:23.034Z,0.37
2018-01-15T03:50:23.031Z,0.32
2018-01-15T03:51:23.015Z,0.32
2018-01-15T03:52:23.005Z,0.32
2018-01-15T03:53:23.000Z,0.34
2018-01-15T03:54:22.991Z,0.25
2018-01-15T03:55:22.978Z,0.21
2018-01-15T03:56:22.969Z,0.15
2018-01-15T03:57:22.962Z,0.29
2018-01-15T03:58:22.952Z,0.25
2018-01-15T03:59:22.940Z,0.18
2018-01-15T04:00:22.933Z,0.12
2018-01-15T04:01:22.925Z,0.21
2018-01-15T04:02:22.916Z,0.12
2018-01-15T04:03:22.907Z,0.15
2018-01-15T04:04:22.897Z,0.26
2018-01-15T04:05:22.889Z,0.31
2018-01-15T04:06:22.880Z,0.37
2018-01-15T04:07:22.870Z,0.36
2018-01-15T04:08:22.860Z,0.31
2018-01-15T04:09:22.851Z,0.31
2018-01-15T04:10:22.843Z,0.19
2018-01-15T04:11:22.831Z,0.18
2018-01-15T04:12:22.828Z,0.31
2018-01-15T04:13:22.814Z,0.26
2018-01-15T04:14:22.805Z,0.37
2018-01-15T04:15:22.795Z,0.28
2018-01-15T04:16:22.786Z,0.34
2018-01-15T04:17:22.778Z,0.36
2018-01-15T04:18:22.769Z,0.29
2018-01-15T04:19:22.763Z,0.34
2018-01-15T04:20:22.750Z,0.34
2018-01-15T04:21:22.741Z,0.34
2018-01-15T04:22:22.733Z,0.29
2018-01-15T04:23:22.723Z,0.31
2018-01-15T04:24:22.714Z,0.36
2018-01-15T04:25:22.704Z,0.40
2018-01-15T04:26:22.698Z,0.47
2018-01-15T04:27:22.688Z,0.34
2018-01-15T04:28:22.678Z,0.39
2018-01-15T04:29:22.674Z,0.40
2018-01-15T04:30:22.660Z,0.40
2018-01-15T04:31:22.650Z,0.43
2018-01-15T04:32:22.643Z,0.41
2018-01-15T04:33:22.633Z,0.46
2018-01-15T04:34:22.625Z,0.49
2018-01-15T04:35:22.614Z,0.47
2018-01-15T04:36:22.606Z,0.47
2018-01-15T04:37:22.597Z,0.44
2018-01-15T04:38:22.589Z,0.49
2018-01-15T04:39:22.579Z,0.49
2018-01-15T04:40:22.574Z,0.46
2018-01-15T04:41:22.564Z,0.50
2018-01-15T04:42:22.553Z,0.62
2018-01-15T04:43:22.543Z,0.56
2018-01-15T04:44:22.533Z,0.56
2018-01-15T04:45:22.526Z,0.63
2018-01-15T04:46:22.517Z,0.62
2018-01-15T04:47:22.508Z,0.56
2018-01-15T04:48:22.501Z,0.60
2018-01-15T04:49:22.490Z,0.58
2018-01-15T04:50:22.482Z,0.59
2018-01-15T04:51:22.472Z,0.60
2018-01-15T04:52:22.462Z,0.58
2018-01-15T04:53:22.455Z,0.52
2018-01-15T04:54:22.445Z,0.58
2018-01-15T04:55:22.436Z,0.62
2018-01-15T04:56:22.433Z,0.55
2018-01-15T04:57:22.420Z,0.63
2018-01-15T04:58:22.413Z,0.50
2018-01-15T04:59:22.404Z,0.62
2018-01-15T05:00:22.397Z,0.58
2018-01-15T05:01:22.386Z,0.59
2018-01-15T05:02:22.374Z,0.60
2018-01-15T05:03:22.366Z,0.60
2018-01-15T05:04:22.356Z,0.62
2018-01-15T05:05:22.347Z,0.55
2018-01-15T05:06:22.339Z,0.62
2018-01-15T05:07:22.329Z,0.62
2018-01-15T05:08:22.319Z,0.55
2018-01-15T05:09:22.316Z,0.55
2018-01-15T05:10:22.305Z,0.60
2018-01-15T05:11:22.293Z,0.60
2018-01-15T05:12:22.285Z,0.63
2018-01-15T05:13:22.277Z,0.60
2018-01-15T05:14:22.267Z,0.60
2018-01-15T05:15:22.305Z,0.63
2018-01-15T05:16:22.250Z,0.58
2018-01-15T05:17:22.242Z,0.60
2018-01-15T05:18:22.233Z,0.60
2018-01-15T05:19:22.223Z,0.63
2018-01-15T05:20:22.215Z,0.62
2018-01-15T05:21:22.206Z,0.74
2018-01-15T05:22:22.198Z,0.69
2018-01-15T05:23:22.188Z,0.66
2018-01-15T05:24:22.178Z,0.65
2018-01-15T05:25:22.171Z,0.73
2018-01-15T05:26:22.161Z,0.69
2018-01-15T05:27:22.189Z,0.68
2018-01-15T05:28:22.144Z,0.65
2018-01-15T05:29:22.136Z,0.77
2018-01-15T05:30:22.128Z,0.69
2018-01-15T05:31:22.117Z,0.73
2018-01-15T05:32:22.108Z,0.70
2018-01-15T05:33:22.099Z,0.65
2018-01-15T05:34:22.093Z,0.68
2018-01-15T05:35:22.083Z,0.70
2018-01-15T05:36:22.074Z,0.69
2018-01-15T05:37:22.069Z,0.81
2018-01-15T05:38:22.061Z,0.84
2018-01-15T05:39:22.049Z,0.81
2018-01-15T05:40:22.040Z,0.87
2018-01-15T05:41:22.031Z,0.80
2018-01-15T05:42:22.023Z,0.86
2018-01-15T05:43:22.014Z,1.02
2018-01-15T05:44:22.006Z,1.02
2018-01-15T05:45:21.996Z,1.04
2018-01-15T05:46:22.033Z,1.10
2018-01-15T05:47:21.979Z,1.13
2018-01-15T05:50:21.952Z,1.37
2018-01-15T05:51:21.943Z,1.40
2018-01-15T05:52:21.935Z,1.44
2018-01-15T05:53:21.928Z,1.59
2018-01-15T05:54:21.919Z,1.70
2018-01-15T05:55:21.910Z,1.78
2018-01-15T05:56:21.901Z,1.91
2018-01-15T05:57:21.893Z,1.92
2018-01-15T05:58:21.940Z,1.95
2018-01-15T05:59:21.875Z,2.04
2018-01-15T06:00:21.866Z,2.24
2018-01-15T06:01:21.858Z,2.15
2018-01-15T06:02:21.849Z,2.20
2018-01-15T06:03:21.842Z,2.25
2018-01-15T06:04:21.832Z,2.26
2018-01-15T06:05:21.824Z,2.29
2018-01-15T06:06:21.816Z,2.31
2018-01-15T06:07:21.810Z,2.42
2018-01-15T06:08:21.799Z,2.39
2018-01-15T06:09:21.792Z,2.39
2018-01-15T06:10:21.783Z,2.46
2018-01-15T06:11:21.777Z,2.43
2018-01-15T06:12:21.766Z,2.44
2018-01-15T06:13:21.757Z,2.44
2018-01-15T06:14:21.751Z,2.46
2018-01-15T06:15:21.741Z,2.51
2018-01-15T06:16:21.734Z,2.43
2018-01-15T06:17:21.725Z,2.62
2018-01-15T06:18:21.717Z,2.56
2018-01-15T06:19:21.707Z,2.62
2018-01-15T06:20:21.699Z,2.62
2018-01-15T06:21:21.691Z,2.62
2018-01-15T06:22:21.683Z,2.64
2018-01-15T06:23:21.674Z,2.68
2018-01-15T06:24:21.666Z,2.74
2018-01-15T06:25:21.658Z,2.72
2018-01-15T06:26:21.651Z,2.83
2018-01-15T06:27:21.642Z,2.83
2018-01-15T06:28:21.633Z,2.89
2018-01-15T06:29:21.626Z,2.83
2018-01-15T06:30:21.626Z,2.82
2018-01-15T06:31:21.610Z,2.82
2018-01-15T06:32:21.600Z,2.80
2018-01-15T06:33:21.593Z,2.90
2018-01-15T06:34:21.585Z,2.83
2018-01-15T06:35:21.575Z,2.85
2018-01-15T06:36:21.569Z,2.79
2018-01-15T06:37:21.565Z,2.83
2018-01-15T06:38:21.553Z,2.82
2018-01-15T06:39:21.544Z,2.93
2018-01-15T06:40:21.537Z,2.89
2018-01-15T06:41:21.527Z,2.93
2018-01-15T06:42:21.521Z,2.98
2018-01-15T06:43:21.512Z,2.92
2018-01-15T06:44:21.505Z,3.00
2018-01-15T06:45:21.496Z,2.93
2018-01-15T06:46:21.489Z,2.98
2018-01-15T06:47:21.481Z,2.95
2018-01-15T06:48:21.472Z,3.00
2018-01-15T06:49:21.465Z,2.97
2018-01-15T06:50:21.458Z,2.90
2018-01-15T06:51:21.449Z,2.98
2018-01-15T06:52:21.441Z,3.05
2018-01-15T06:53:21.433Z,2.95
2018-01-15T06:54:21.425Z,3.01
2018-01-15T06:55:21.416Z,3.03
2018-01-15T06:56:21.408Z,3.04
2018-01-15T06:57:21.401Z,3.00
2018-01-15T06:58:21.394Z,3.01
2018-01-15T06:59:21.384Z,2.97
2018-01-15T07:00:21.377Z,2.98
2018-01-15T07:01:21.369Z,3.03
2018-01-15T07:02:21.363Z,3.01
2018-01-15T07:03:21.353Z,2.92
2018-01-15T07:04:21.345Z,3.10
2018-01-15T07:05:21.339Z,3.04
2018-01-15T07:06:21.331Z,3.10
2018-01-15T07:07:21.322Z,3.11
2018-01-15T07:08:21.315Z,3.10
2018-01-15T07:09:21.306Z,3.08
2018-01-15T07:10:21.299Z,3.19
2018-01-15T07:11:21.289Z,3.10
2018-01-15T07:12:21.281Z,3.07
2018-01-15T07:13:21.274Z,3.21
2018-01-15T07:14:21.266Z,3.08
2018-01-15T07:15:21.258Z,3.08
2018-01-15T07:16:21.250Z,3.07
2018-01-15T07:17:21.243Z,3.07
2018-01-15T07:18:21.236Z,3.16
2018-01-15T07:19:21.228Z,3.16
2018-01-15T07:20:21.220Z,3.23
2018-01-15T07:21:21.215Z,3.18
2018-01-15T07:22:21.206Z,3.25
2018-01-15T07:23:21.198Z,3.29
2018-01-15T07:24:21.190Z,3.18
2018-01-15T07:25:21.181Z,3.32
2018-01-15T07:26:21.173Z,3.36
2018-01-15T07:27:21.164Z,3.28
2018-01-15T07:28:21.156Z,3.34
2018-01-15T07:29:21.150Z,3.31
2018-01-15T07:30:21.141Z,3.36
2018-01-15T07:31:21.134Z,3.34
2018-01-15T07:32:21.132Z,3.44
2018-01-15T07:33:21.118Z,3.44
2018-01-15T07:34:21.111Z,3.42
2018-01-15T07:35:21.102Z,3.47
2018-01-15T07:36:21.094Z,3.51
2018-01-15T07:37:21.087Z,3.48
2018-01-15T07:38:21.080Z,3.48
2018-01-15T07:39:21.071Z,3.41
2018-01-15T07:40:21.063Z,3.51
2018-01-15T07:41:21.057Z,3.48
2018-01-15T07:42:21.049Z,3.48
2018-01-15T07:43:21.040Z,3.60
2018-01-15T07:44:21.033Z,3.55
2018-01-15T07:45:21.025Z,3.62
2018-01-15T07:46:21.017Z,3.69
2018-01-15T07:47:21.010Z,3.70
2018-01-15T07:48:21.001Z,3.62
2018-01-15T07:49:20.995Z,3.70
2018-01-15T07:50:20.988Z,3.81
2018-01-15T07:51:20.980Z,3.80
2018-01-15T07:52:20.973Z,3.84
2018-01-15T07:53:20.965Z,3.80
2018-01-15T07:54:20.957Z,3.80
2018-01-15T07:55:20.949Z,3.91
2018-01-15T07:56:20.945Z,3.86
2018-01-15T07:57:20.935Z,3.98
2018-01-15T07:58:20.926Z,3.94
2018-01-15T07:59:20.918Z,4.12
2018-01-15T08:00:20.911Z,4.05
2018-01-15T08:01:20.903Z,4.04
2018-01-15T08:02:20.896Z,4.04
2018-01-15T08:03:20.888Z,4.04
2018-01-15T08:04:20.881Z,4.08
2018-01-15T08:05:20.873Z,4.10
2018-01-15T08:06:20.866Z,4.02
2018-01-15T08:07:20.858Z,4.13
2018-01-15T08:08:20.851Z,4.24
2018-01-15T08:09:20.844Z,4.19
2018-01-15T08:10:20.836Z,4.22
2018-01-15T08:11:20.828Z,4.23
2018-01-15T08:12:20.821Z,4.16
2018-01-15T08:13:20.815Z,4.19
2018-01-15T08:14:20.806Z,4.20
2018-01-15T08:15:20.798Z,4.20
2018-01-15T08:16:20.792Z,4.20
2018-01-15T08:17:20.785Z,4.22
2018-01-15T08:18:20.777Z,4.31
2018-01-15T08:19:20.769Z,4.24
2018-01-15T08:20:20.761Z,4.41
2018-01-15T08:21:20.755Z,4.34
2018-01-15T08:22:20.748Z,4.38
2018-01-15T08:23:20.738Z,4.32
2018-01-15T08:24:20.732Z,4.26
2018-01-15T08:25:20.725Z,4.26
2018-01-15T08:26:20.717Z,4.38
2018-01-15T08:27:20.711Z,4.40
2018-01-15T08:28:20.702Z,4.40
2018-01-15T08:29:20.695Z,4.38
2018-01-15T08:30:20.688Z,4.38
2018-01-15T08:31:20.680Z,4.40
2018-01-15T08:32:20.674Z,4.41
2018-01-15T08:33:20.666Z,4.34
2018-01-15T08:34:20.659Z,4.41
2018-01-15T08:35:20.652Z,4.44
2018-01-15T08:36:20.645Z,4.44
2018-01-15T08:37:20.637Z,4.49
2018-01-15T08:38:20.631Z,4.42
2018-01-15T08:39:20.623Z,4.52
2018-01-15T08:40:20.615Z,4.55
2018-01-15T08:41:20.608Z,4.60
2018-01-15T08:42:20.602Z,4.56
2018-01-15T08:43:20.594Z,4.56
2018-01-15T08:44:20.586Z,4.56
2018-01-15T08:45:20.582Z,4.63
2018-01-15T08:46:20.577Z,4.49
2018-01-15T08:47:20.565Z,4.49
2018-01-15T08:48:20.557Z,4.42
2018-01-15T08:49:20.551Z,4.52
2018-01-15T08:50:20.546Z,4.49
2018-01-15T08:51:20.536Z,4.45
2018-01-15T08:52:20.528Z,4.49
2018-01-15T08:53:20.522Z,4.44
2018-01-15T08:54:20.515Z,4.49
2018-01-15T08:55:20.508Z,4.45
2018-01-15T08:56:20.500Z,4.44
2018-01-15T08:57:20.493Z,4.40
2018-01-15T08:58:20.486Z,4.49
2018-01-15T08:59:20.479Z,4.45
2018-01-15T09:00:20.472Z,4.52
2018-01-15T09:01:20.466Z,4.53
2018-01-15T09:02:20.459Z,4.49
2018-01-15T09:03:20.451Z,4.56
2018-01-15T09:04:20.446Z,4.44
2018-01-15T09:05:20.437Z,4.48
2018-01-15T09:06:20.430Z,4.50
2018-01-15T09:07:20.424Z,4.58
2018-01-15T09:08:20.416Z,4.62
2018-01-15T09:09:20.409Z,4.62
2018-01-15T09:10:20.402Z,4.60
2018-01-15T09:11:20.395Z,4.62
2018-01-15T09:12:20.388Z,4.62
2018-01-15T09:13:20.383Z,4.73
2018-01-15T09:14:20.375Z,4.67
2018-01-15T09:15:20.368Z,4.73
2018-01-15T09:16:20.361Z,4.78
2018-01-15T09:17:20.355Z,4.73
2018-01-15T09:18:20.347Z,4.74
2018-01-15T09:19:20.340Z,4.68
2018-01-15T09:20:20.337Z,4.73
2018-01-15T09:21:20.326Z,4.75
2018-01-15T09:22:20.321Z,4.68
2018-01-15T09:23:20.312Z,4.80
2018-01-15T09:24:20.307Z,4.86
2018-01-15T09:25:20.299Z,4.93
2018-01-15T09:26:20.294Z,4.99
2018-01-15T09:27:20.286Z,5.07
2018-01-15T09:28:20.280Z,5.07
2018-01-15T09:29:20.272Z,5.08
2018-01-15T09:30:20.267Z,5.17
2018-01-15T09:31:20.260Z,5.15
2018-01-15T09:32:20.253Z,5.18
2018-01-15T09:33:20.247Z,5.18
2018-01-15T09:34:20.239Z,5.33
2018-01-15T09:35:20.232Z,5.39
2018-01-15T09:36:20.226Z,5.46
2018-01-15T09:37:20.252Z,5.39
2018-01-15T09:38:20.213Z,5.44
2018-01-15T09:39:20.205Z,5.44
2018-01-15T09:40:20.199Z,5.46
2018-01-15T09:41:20.192Z,5.46
2018-01-15T09:42:20.187Z,5.47
2018-01-15T09:43:20.205Z,5.53
2018-01-15T09:44:20.172Z,5.53
2018-01-15T09:45:20.166Z,5.53
2018-01-15T09:46:20.160Z,5.61
2018-01-15T09:47:20.157Z,5.59
2018-01-15T09:48:20.147Z,5.68
2018-01-15T09:49:20.140Z,5.64
2018-01-15T09:50:20.134Z,5.68
2018-01-15T09:51:20.127Z,5.68
2018-01-15T09:52:20.121Z,5.76
2018-01-15T09:53:20.113Z,5.76
2018-01-15T09:54:20.108Z,5.87
2018-01-15T09:55:20.101Z,5.86
2018-01-15T09:56:20.095Z,5.89
2018-01-15T09:57:20.089Z,5.83
2018-01-15T09:58:20.084Z,5.84
2018-01-15T09:59:20.076Z,5.90
2018-01-15T10:00:20.070Z,5.91
2018-01-15T10:01:20.064Z,5.87
2018-01-15T10:02:20.058Z,5.91
2018-01-15T10:03:20.051Z,6.01
2018-01-15T10:04:20.045Z,5.84
2018-01-15T10:05:20.039Z,5.99
2018-01-15T10:06:20.033Z,6.04
2018-01-15T10:07:20.028Z,6.02
2018-01-15T10:08:20.021Z,5.99
2018-01-15T10:09:20.015Z,5.93
2018-01-15T10:10:20.009Z,5.99
2018-01-15T10:11:20.010Z,5.97
2018-01-15T10:12:19.997Z,6.02
2018-01-15T10:13:19.991Z,6.07
2018-01-15T10:14:19.988Z,6.12
2018-01-15T10:15:19.978Z,6.16
2018-01-15T10:16:19.976Z,6.08
2018-01-15T10:17:19.966Z,6.17
2018-01-15T10:18:19.961Z,6.24
2018-01-15T10:19:19.955Z,6.14
2018-01-15T10:20:19.947Z,6.20
2018-01-15T10:21:19.941Z,6.22
2018-01-15T10:22:19.938Z,6.20
2018-01-15T10:23:19.930Z,6.27
2018-01-15T10:24:19.924Z,6.17
2018-01-15T10:25:19.919Z,6.24
2018-01-15T10:26:19.913Z,6.22
2018-01-15T10:27:19.907Z,6.28
2018-01-15T10:28:19.902Z,6.19
2018-01-15T10:29:19.895Z,6.28
2018-01-15T10:30:19.889Z,6.24
2018-01-15T10:31:19.883Z,6.27
2018-01-15T10:32:19.877Z,6.19
2018-01-15T10:33:19.875Z,6.26
2018-01-15T10:34:19.866Z,6.19
2018-01-15T10:35:19.861Z,6.27
2018-01-15T10:36:19.855Z,6.30
2018-01-15T10:37:19.848Z,6.24
2018-01-15T10:38:19.843Z,6.28
2018-01-15T10:39:19.836Z,6.31
2018-01-15T10:40:19.832Z,6.36
2018-01-15T10:41:19.826Z,6.38
2018-01-15T10:42:19.819Z,6.42
2018-01-15T10:43:19.813Z,6.46
2018-01-15T10:44:19.807Z,6.48
2018-01-15T10:45:19.802Z,6.49
2018-01-15T10:46:19.796Z,6.51
2018-01-15T10:47:19.790Z,6.52
2018-01-15T10:48:19.787Z,6.52
2018-01-15T10:49:19.779Z,6.56
2018-01-15T10:50:19.775Z,6.67
2018-01-15T10:51:19.768Z,6.57
2018-01-15T10:52:19.766Z,6.64
2018-01-15T10:53:19.758Z,6.64
2018-01-15T10:54:19.751Z,6.70
2018-01-15T10:55:19.744Z,6.72
2018-01-15T10:56:19.739Z,6.67
2018-01-15T10:57:19.736Z,6.79
2018-01-15T10:58:19.729Z,6.78
2018-01-15T10:59:19.721Z,6.84
2018-01-15T11:00:19.716Z,6.79
2018-01-15T11:01:19.711Z,6.84
2018-01-15T11:02:19.707Z,6.87
2018-01-15T11:03:19.699Z,6.81
2018-01-15T11:04:19.694Z,6.85
2018-01-15T11:05:19.689Z,6.92
2018-01-15T11:06:19.685Z,6.88
2018-01-15T11:07:19.678Z,6.93
2018-01-15T11:08:19.672Z,6.87
2018-01-15T11:09:19.667Z,6.88
2018-01-15T11:10:19.663Z,6.85
2018-01-15T11:11:19.656Z,6.85
2018-01-15T11:12:19.650Z,6.84
2018-01-15T11:13:19.644Z,6.84
2018-01-15T11:14:19.640Z,6.79
2018-01-15T11:15:19.633Z,6.84
2018-01-15T11:16:19.627Z,6.87
2018-01-15T11:17:19.624Z,6.89
2018-01-15T11:18:19.629Z,6.87
2018-01-15T11:19:19.611Z,6.78
2018-01-15T11:20:19.606Z,6.87
2018-01-15T11:21:19.601Z,6.89
2018-01-15T11:22:19.596Z,6.89
2018-01-15T11:23:19.589Z,6.93
2018-01-15T11:24:19.584Z,6.92
2018-01-15T11:25:19.578Z,6.92
2018-01-15T11:26:19.575Z,6.92
2018-01-15T11:27:19.567Z,7.03
2018-01-15T11:28:19.563Z,7.07
2018-01-15T11:29:19.557Z,7.06
2018-01-15T11:30:19.552Z,7.05
2018-01-15T11:31:19.545Z,7.14
2018-01-15T11:32:19.542Z,7.21
2018-01-15T11:33:19.536Z,7.18
2018-01-15T11:34:19.530Z,7.20
2018-01-15T11:35:19.524Z,7.31
2018-01-15T11:36:19.520Z,7.23
2018-01-15T11:37:19.514Z,7.23
2018-01-15T11:38:19.509Z,7.29
2018-01-15T11:39:19.503Z,7.32
2018-01-15T11:40:19.498Z,7.28
2018-01-15T11:41:19.492Z,7.32
2018-01-15T11:42:19.489Z,7.36
2018-01-15T11:43:19.482Z,7.32
2018-01-15T11:44:19.477Z,7.29
2018-01-15T11:45:19.622Z,7.36
2018-01-15T11:46:19.468Z,7.36
2018-01-15T11:47:19.462Z,7.32
2018-01-15T11:48:19.456Z,7.39
2018-01-15T11:49:19.452Z,7.45
2018-01-15T11:50:19.447Z,7.38
2018-01-15T11:51:19.440Z,7.38
2018-01-15T11:52:19.435Z,7.45
2018-01-15T11:53:19.430Z,7.40
2018-01-15T11:54:19.425Z,7.31
2018-01-15T11:55:19.419Z,7.35
2018-01-15T11:56:19.416Z,7.40
2018-01-15T11:57:19.414Z,7.39
2018-01-15T11:58:19.404Z,7.38
2018-01-15T11:59:19.400Z,7.38
2018-01-15T12:00:19.394Z,7.33
2018-01-15T12:01:19.390Z,7.45
2018-01-15T12:02:19.383Z,7.48
2018-01-15T12:03:19.378Z,7.45
2018-01-15T12:04:19.374Z,7.53
2018-01-15T12:05:19.368Z,7.50
2018-01-15T12:06:19.363Z,7.45
2018-01-15T12:07:19.358Z,7.43
2018-01-15T12:08:19.353Z,7.50
2018-01-15T12:09:19.349Z,7.53
2018-01-15T12:10:19.344Z,7.56
2018-01-15T12:11:19.337Z,7.54
2018-01-15T12:12:19.331Z,7.54
2018-01-15T12:13:19.326Z,7.58
2018-01-15T12:14:19.322Z,7.54
2018-01-15T12:15:19.316Z,7.60
2018-01-15T12:16:19.320Z,7.61
2018-01-15T12:17:19.306Z,7.57
2018-01-15T12:18:19.302Z,7.56
2018-01-15T12:19:19.295Z,7.63
2018-01-15T12:20:19.292Z,7.58
2018-01-15T12:21:19.289Z,7.70
2018-01-15T12:22:19.280Z,7.66
2018-01-15T12:23:19.274Z,7.76
2018-01-15T12:24:19.269Z,7.67
2018-01-15T12:25:19.277Z,7.79
2018-01-15T12:26:19.259Z,7.70
2018-01-15T12:27:19.255Z,7.76
2018-01-15T12:28:19.251Z,7.70
2018-01-15T12:29:19.245Z,7.76
2018-01-15T12:30:19.241Z,7.73
2018-01-15T12:31:19.234Z,7.91
2018-01-15T12:32:19.229Z,7.77
2018-01-15T12:33:19.224Z,7.73
2018-01-15T12:34:19.219Z,7.80
2018-01-15T12:35:19.213Z,7.73
2018-01-15T12:36:19.209Z,7.73
2018-01-15T12:37:19.203Z,7.79
2018-01-15T12:38:19.199Z,7.72
2018-01-15T12:39:19.193Z,7.73
2018-01-15T12:40:19.190Z,7.83
2018-01-15T12:41:19.185Z,7.85
2018-01-15T12:42:19.179Z,7.83
2018-01-15T12:43:19.173Z,7.87
2018-01-15T12:44:19.169Z,7.80
2018-01-15T12:45:19.163Z,7.83
2018-01-15T12:46:19.161Z,7.83
2018-01-15T12:47:19.152Z,7.83
2018-01-15T12:48:19.148Z,7.93
2018-01-15T12:49:19.163Z,7.83
2018-01-15T12:50:19.139Z,7.82
2018-01-15T12:51:19.135Z,7.82
2018-01-15T12:52:19.133Z,7.83
2018-01-15T12:53:19.123Z,7.82
2018-01-15T12:54:19.117Z,7.83
2018-01-15T12:55:19.113Z,7.77
2018-01-15T12:56:19.106Z,7.70
2018-01-15T12:57:19.104Z,7.69
2018-01-15T12:58:19.097Z,7.73
2018-01-15T12:59:19.092Z,7.80
2018-01-15T13:00:19.086Z,7.72
2018-01-15T13:01:19.082Z,7.80
2018-01-15T13:02:19.077Z,7.77
2018-01-15T13:03:19.073Z,7.77
2018-01-15T13:04:19.065Z,7.73
2018-01-15T13:05:19.061Z,7.80
2018-01-15T13:06:19.056Z,7.70
2018-01-15T13:07:19.050Z,7.79
2018-01-15T13:08:19.045Z,7.72
2018-01-15T13:09:19.041Z,7.77
2018-01-15T13:10:19.035Z,7.69
2018-01-15T13:11:19.031Z,7.82
2018-01-15T13:12:19.025Z,7.69
2018-01-15T13:13:19.020Z,7.70
2018-01-15T13:14:19.017Z,7.73
2018-01-15T13:15:19.009Z,7.76